Kezdőlap
METAR-TAF:

METAR-TAF

Repülőterek :

Hassi Messaoud, Algéria

földrajzi szélesség: 31-40N, földrajzi hosszúság: 006-09E, magasság: 142 m

Jelenlegi meteorológiai megfigyelések

A jelentés 57 perccel ezelõtt készült, 05:00 UTC
Északkeleti szél 6 kt, északi és keleti között változik
Hőmérséklet 26°C
Páratartalom 34%
Légköri nyomás 1011 hPa
Látótávolság: 8000 m

METAR: DAUH 230500Z 04006KT 350V080 8000 NSC 26/09 Q1011

Idő: 06:57 (05:57 UTC)

Előrejelzés

A jelentés 57 perccel ezelõtt készült, 05:00 UTC
Az előrejelzés 23-én 06 óra UTC és 24-én 06 óra UTC között érvényes
Keleti szél 8 kt
Látótávolság: 8000 m
Valószínűség 30% :
23-én 07 óra UTC és 23-én 12 óra UTC között ideiglenes
Keleti szél 15 kt széllökések: 25 kt
Látótávolság: 4000 m
alacsony homokvihar,

TAF: DAUH 230500Z 2306/2406 08008KT 8000 NSC PROB30 TEMPO 2307/2312 08015G25KT 4000 DRSA

Meteorológiai megfigyelések és előrejelzések több, mint 4000 repülőtéren (METAR és TAF jelentéseket).

A térképen piros és sárga pontok jelzik az elérhető meteorológiai állomásokat.

Mozgassa az egeret a pont fölött, hogy megjelenjen az állomás neve.

Azután kattintson az időjárási megfigyelések és előrejelzések megtekintéséhez.

A térkép megváltoztatása: kattintson a fekete keresztel jelölt zöld gombra ráközelítéshez, a vonallal jelölt zöld gombra távolításhoz, vagy a zöld nyilakra a szomszédos térképek eléréséhez.


METAR-TAF: